sensor_id;sensor_type;location;lat;lon;timestamp;temperature;humidity
6792;DHT22;3433;48.730;9.108;2023-08-31T00:01:24;15.80;99.90
6792;DHT22;3433;48.730;9.108;2023-08-31T00:04:11;15.80;99.90
6792;DHT22;3433;48.730;9.108;2023-08-31T00:07:00;15.80;99.90
6792;DHT22;3433;48.730;9.108;2023-08-31T00:09:47;15.80;99.90
6792;DHT22;3433;48.730;9.108;2023-08-31T00:12:35;15.80;99.90
6792;DHT22;3433;48.730;9.108;2023-08-31T00:15:24;15.80;99.90
6792;DHT22;3433;48.730;9.108;2023-08-31T00:18:14;15.80;99.90
6792;DHT22;3433;48.730;9.108;2023-08-31T00:21:02;15.80;99.90
6792;DHT22;3433;48.730;9.108;2023-08-31T00:23:49;15.80;99.90
6792;DHT22;3433;48.730;9.108;2023-08-31T00:26:36;15.70;99.90
6792;DHT22;3433;48.730;9.108;2023-08-31T00:29:28;15.70;99.90
6792;DHT22;3433;48.730;9.108;2023-08-31T00:32:17;15.70;99.90
6792;DHT22;3433;48.730;9.108;2023-08-31T00:35:05;15.70;99.90
6792;DHT22;3433;48.730;9.108;2023-08-31T00:37:54;15.60;99.90
6792;DHT22;3433;48.730;9.108;2023-08-31T00:40:44;15.60;99.90
6792;DHT22;3433;48.730;9.108;2023-08-31T00:43:31;15.60;99.90
6792;DHT22;3433;48.730;9.108;2023-08-31T00:46:19;15.50;99.90
6792;DHT22;3433;48.730;9.108;2023-08-31T00:49:08;15.50;99.90
6792;DHT22;3433;48.730;9.108;2023-08-31T00:51:56;15.60;99.90
6792;DHT22;3433;48.730;9.108;2023-08-31T00:54:46;15.60;99.90
6792;DHT22;3433;48.730;9.108;2023-08-31T00:57:34;15.50;99.90
6792;DHT22;3433;48.730;9.108;2023-08-31T01:00:21;15.60;99.90
6792;DHT22;3433;48.730;9.108;2023-08-31T01:03:13;15.60;99.90
6792;DHT22;3433;48.730;9.108;2023-08-31T01:06:13;15.50;99.90
6792;DHT22;3433;48.730;9.108;2023-08-31T01:09:06;15.50;99.90
6792;DHT22;3433;48.730;9.108;2023-08-31T01:11:59;15.50;99.90
6792;DHT22;3433;48.730;9.108;2023-08-31T01:14:56;15.40;99.90
6792;DHT22;3433;48.730;9.108;2023-08-31T01:17:47;15.30;99.90
6792;DHT22;3433;48.730;9.108;2023-08-31T01:20:40;15.30;99.90
6792;DHT22;3433;48.730;9.108;2023-08-31T01:23:51;15.20;99.90
6792;DHT22;3433;48.730;9.108;2023-08-31T01:26:40;15.10;99.90
6792;DHT22;3433;48.730;9.108;2023-08-31T01:29:30;15.20;99.90
6792;DHT22;3433;48.730;9.108;2023-08-31T01:32:17;15.10;99.90
6792;DHT22;3433;48.730;9.108;2023-08-31T01:35:06;15.20;99.90
6792;DHT22;3433;48.730;9.108;2023-08-31T01:37:55;15.10;99.90
6792;DHT22;3433;48.730;9.108;2023-08-31T01:40:48;15.10;99.90
6792;DHT22;3433;48.730;9.108;2023-08-31T01:43:38;15.00;99.90
6792;DHT22;3433;48.730;9.108;2023-08-31T01:46:27;15.00;99.90
6792;DHT22;3433;48.730;9.108;2023-08-31T01:49:15;15.00;99.90
6792;DHT22;3433;48.730;9.108;2023-08-31T01:52:02;15.00;99.90
6792;DHT22;3433;48.730;9.108;2023-08-31T01:54:49;14.90;99.90
6792;DHT22;3433;48.730;9.108;2023-08-31T01:57:38;14.90;99.90
6792;DHT22;3433;48.730;9.108;2023-08-31T02:00:25;14.80;99.90
6792;DHT22;3433;48.730;9.108;2023-08-31T02:03:14;14.90;99.90
6792;DHT22;3433;48.730;9.108;2023-08-31T02:06:01;14.90;99.90
6792;DHT22;3433;48.730;9.108;2023-08-31T02:08:49;14.90;99.90
6792;DHT22;3433;48.730;9.108;2023-08-31T02:11:37;14.90;99.90
6792;DHT22;3433;48.730;9.108;2023-08-31T02:14:25;14.90;99.90
6792;DHT22;3433;48.730;9.108;2023-08-31T02:17:13;14.90;99.90
6792;DHT22;3433;48.730;9.108;2023-08-31T02:20:00;14.80;99.90
6792;DHT22;3433;48.730;9.108;2023-08-31T02:22:48;14.90;99.90
6792;DHT22;3433;48.730;9.108;2023-08-31T02:25:36;14.90;99.90
6792;DHT22;3433;48.730;9.108;2023-08-31T02:28:23;14.90;99.90
6792;DHT22;3433;48.730;9.108;2023-08-31T02:31:13;14.90;99.90
6792;DHT22;3433;48.730;9.108;2023-08-31T02:34:01;14.90;99.90
6792;DHT22;3433;48.730;9.108;2023-08-31T02:36:48;14.90;99.90
6792;DHT22;3433;48.730;9.108;2023-08-31T02:39:35;14.90;99.90
6792;DHT22;3433;48.730;9.108;2023-08-31T02:42:22;14.90;99.90
6792;DHT22;3433;48.730;9.108;2023-08-31T02:45:10;14.90;99.90
6792;DHT22;3433;48.730;9.108;2023-08-31T02:47:58;15.00;99.90
6792;DHT22;3433;48.730;9.108;2023-08-31T02:50:45;14.90;99.90
6792;DHT22;3433;48.730;9.108;2023-08-31T02:53:33;14.90;99.90
6792;DHT22;3433;48.730;9.108;2023-08-31T02:56:20;15.00;99.90
6792;DHT22;3433;48.730;9.108;2023-08-31T02:59:07;14.90;99.90
6792;DHT22;3433;48.730;9.108;2023-08-31T03:01:54;14.90;99.90
6792;DHT22;3433;48.730;9.108;2023-08-31T03:04:43;15.00;99.90
6792;DHT22;3433;48.730;9.108;2023-08-31T03:07:30;14.90;99.90
6792;DHT22;3433;48.730;9.108;2023-08-31T03:10:18;14.90;99.90
6792;DHT22;3433;48.730;9.108;2023-08-31T03:13:05;14.90;99.90
6792;DHT22;3433;48.730;9.108;2023-08-31T03:15:52;15.00;99.90
6792;DHT22;3433;48.730;9.108;2023-08-31T03:18:39;14.90;99.90
6792;DHT22;3433;48.730;9.108;2023-08-31T03:21:28;14.90;99.90
6792;DHT22;3433;48.730;9.108;2023-08-31T03:24:15;14.90;99.90
6792;DHT22;3433;48.730;9.108;2023-08-31T03:27:02;14.80;99.90
6792;DHT22;3433;48.730;9.108;2023-08-31T03:29:50;14.80;99.90
6792;DHT22;3433;48.730;9.108;2023-08-31T03:32:37;14.80;99.90
6792;DHT22;3433;48.730;9.108;2023-08-31T03:35:24;14.80;99.90
6792;DHT22;3433;48.730;9.108;2023-08-31T03:38:16;14.80;99.90
6792;DHT22;3433;48.730;9.108;2023-08-31T03:41:03;14.80;99.90
6792;DHT22;3433;48.730;9.108;2023-08-31T03:43:50;14.80;99.90
6792;DHT22;3433;48.730;9.108;2023-08-31T03:46:37;14.70;99.90
6792;DHT22;3433;48.730;9.108;2023-08-31T03:49:25;14.70;99.90
6792;DHT22;3433;48.730;9.108;2023-08-31T03:52:12;14.70;99.90
6792;DHT22;3433;48.730;9.108;2023-08-31T03:55:00;14.70;99.90
6792;DHT22;3433;48.730;9.108;2023-08-31T03:57:48;14.70;99.90
6792;DHT22;3433;48.730;9.108;2023-08-31T04:00:37;14.70;99.90
6792;DHT22;3433;48.730;9.108;2023-08-31T04:03:24;14.60;99.90
6792;DHT22;3433;48.730;9.108;2023-08-31T04:06:11;14.60;99.90
6792;DHT22;3433;48.730;9.108;2023-08-31T04:08:58;14.60;99.90
6792;DHT22;3433;48.730;9.108;2023-08-31T04:11:47;14.60;99.90
6792;DHT22;3433;48.730;9.108;2023-08-31T04:14:34;14.60;99.90
6792;DHT22;3433;48.730;9.108;2023-08-31T04:17:21;14.60;99.90
6792;DHT22;3433;48.730;9.108;2023-08-31T04:20:09;14.60;99.90
6792;DHT22;3433;48.730;9.108;2023-08-31T04:22:57;14.60;99.90
6792;DHT22;3433;48.730;9.108;2023-08-31T04:25:44;14.60;99.90
6792;DHT22;3433;48.730;9.108;2023-08-31T04:28:32;14.60;99.90
6792;DHT22;3433;48.730;9.108;2023-08-31T04:31:20;14.50;99.90
6792;DHT22;3433;48.730;9.108;2023-08-31T04:34:07;14.60;99.90
6792;DHT22;3433;48.730;9.108;2023-08-31T04:36:54;14.50;99.90
6792;DHT22;3433;48.730;9.108;2023-08-31T04:39:41;14.50;99.90
6792;DHT22;3433;48.730;9.108;2023-08-31T04:42:29;14.50;99.90
6792;DHT22;3433;48.730;9.108;2023-08-31T04:45:17;14.60;99.90
6792;DHT22;3433;48.730;9.108;2023-08-31T04:48:05;14.60;99.90
6792;DHT22;3433;48.730;9.108;2023-08-31T04:50:56;14.60;99.90
6792;DHT22;3433;48.730;9.108;2023-08-31T04:53:43;14.60;99.90
6792;DHT22;3433;48.730;9.108;2023-08-31T04:56:31;14.60;99.90
6792;DHT22;3433;48.730;9.108;2023-08-31T04:59:19;14.60;99.90
6792;DHT22;3433;48.730;9.108;2023-08-31T05:02:07;14.50;99.90
6792;DHT22;3433;48.730;9.108;2023-08-31T05:04:54;14.50;99.90
6792;DHT22;3433;48.730;9.108;2023-08-31T05:07:42;14.50;99.90
6792;DHT22;3433;48.730;9.108;2023-08-31T05:10:29;14.50;99.90
6792;DHT22;3433;48.730;9.108;2023-08-31T05:13:16;14.50;99.90
6792;DHT22;3433;48.730;9.108;2023-08-31T05:16:04;14.50;99.90
6792;DHT22;3433;48.730;9.108;2023-08-31T05:18:52;14.40;99.90
6792;DHT22;3433;48.730;9.108;2023-08-31T05:21:39;14.40;99.90
6792;DHT22;3433;48.730;9.108;2023-08-31T05:24:26;14.40;99.90
6792;DHT22;3433;48.730;9.108;2023-08-31T05:27:14;14.50;99.90
6792;DHT22;3433;48.730;9.108;2023-08-31T05:30:01;14.50;99.90
6792;DHT22;3433;48.730;9.108;2023-08-31T05:32:48;14.50;99.90
6792;DHT22;3433;48.730;9.108;2023-08-31T05:35:37;14.50;99.90
6792;DHT22;3433;48.730;9.108;2023-08-31T05:38:24;14.50;99.90
6792;DHT22;3433;48.730;9.108;2023-08-31T05:41:12;14.50;99.90
6792;DHT22;3433;48.730;9.108;2023-08-31T05:43:59;14.50;99.90
6792;DHT22;3433;48.730;9.108;2023-08-31T05:46:46;14.50;99.90
6792;DHT22;3433;48.730;9.108;2023-08-31T05:49:33;14.60;99.90
6792;DHT22;3433;48.730;9.108;2023-08-31T05:52:22;14.60;99.90
6792;DHT22;3433;48.730;9.108;2023-08-31T05:55:09;14.60;99.90
6792;DHT22;3433;48.730;9.108;2023-08-31T05:58:01;14.60;99.90
6792;DHT22;3433;48.730;9.108;2023-08-31T06:00:50;14.60;99.90
6792;DHT22;3433;48.730;9.108;2023-08-31T06:03:37;14.70;99.90
6792;DHT22;3433;48.730;9.108;2023-08-31T06:06:25;14.70;99.90
6792;DHT22;3433;48.730;9.108;2023-08-31T06:09:13;14.70;99.90
6792;DHT22;3433;48.730;9.108;2023-08-31T06:12:02;14.80;99.90
6792;DHT22;3433;48.730;9.108;2023-08-31T06:14:49;14.80;99.90
6792;DHT22;3433;48.730;9.108;2023-08-31T06:17:36;14.80;99.90
6792;DHT22;3433;48.730;9.108;2023-08-31T06:20:24;14.80;99.90
6792;DHT22;3433;48.730;9.108;2023-08-31T06:23:11;14.90;99.90
6792;DHT22;3433;48.730;9.108;2023-08-31T06:26:00;14.90;99.90
6792;DHT22;3433;48.730;9.108;2023-08-31T06:28:47;14.90;99.90
6792;DHT22;3433;48.730;9.108;2023-08-31T06:31:35;15.00;99.90
6792;DHT22;3433;48.730;9.108;2023-08-31T06:34:22;15.10;99.90
6792;DHT22;3433;48.730;9.108;2023-08-31T06:37:09;15.00;99.90
6792;DHT22;3433;48.730;9.108;2023-08-31T06:39:57;15.20;99.90
6792;DHT22;3433;48.730;9.108;2023-08-31T06:42:45;15.20;99.90
6792;DHT22;3433;48.730;9.108;2023-08-31T06:45:32;15.30;99.90
6792;DHT22;3433;48.730;9.108;2023-08-31T06:48:20;15.50;99.90
6792;DHT22;3433;48.730;9.108;2023-08-31T06:51:07;15.50;99.90
6792;DHT22;3433;48.730;9.108;2023-08-31T06:53:54;15.60;99.90
6792;DHT22;3433;48.730;9.108;2023-08-31T06:56:41;15.70;99.90
6792;DHT22;3433;48.730;9.108;2023-08-31T06:59:30;15.80;99.90
6792;DHT22;3433;48.730;9.108;2023-08-31T07:02:17;16.10;99.90
6792;DHT22;3433;48.730;9.108;2023-08-31T07:05:06;16.10;99.90
6792;DHT22;3433;48.730;9.108;2023-08-31T07:07:54;16.20;99.90
6792;DHT22;3433;48.730;9.108;2023-08-31T07:10:42;16.30;99.90
6792;DHT22;3433;48.730;9.108;2023-08-31T07:13:29;16.20;99.90
6792;DHT22;3433;48.730;9.108;2023-08-31T07:16:17;16.30;99.90
6792;DHT22;3433;48.730;9.108;2023-08-31T07:19:05;16.20;99.90
6792;DHT22;3433;48.730;9.108;2023-08-31T07:21:52;16.10;99.90
6792;DHT22;3433;48.730;9.108;2023-08-31T07:24:40;16.20;99.90
6792;DHT22;3433;48.730;9.108;2023-08-31T07:27:27;16.10;99.90
6792;DHT22;3433;48.730;9.108;2023-08-31T07:30:15;16.30;99.90
6792;DHT22;3433;48.730;9.108;2023-08-31T07:33:04;16.40;99.90
6792;DHT22;3433;48.730;9.108;2023-08-31T07:35:51;16.50;99.90
6792;DHT22;3433;48.730;9.108;2023-08-31T07:38:38;16.70;99.90
6792;DHT22;3433;48.730;9.108;2023-08-31T07:41:26;16.80;99.90
6792;DHT22;3433;48.730;9.108;2023-08-31T07:44:13;16.80;99.90
6792;DHT22;3433;48.730;9.108;2023-08-31T07:47:00;16.80;99.90
6792;DHT22;3433;48.730;9.108;2023-08-31T07:49:49;16.90;99.90
6792;DHT22;3433;48.730;9.108;2023-08-31T07:52:36;17.10;99.90
6792;DHT22;3433;48.730;9.108;2023-08-31T07:55:24;17.20;99.90
6792;DHT22;3433;48.730;9.108;2023-08-31T07:58:11;17.20;99.90
6792;DHT22;3433;48.730;9.108;2023-08-31T08:00:58;17.20;99.90
6792;DHT22;3433;48.730;9.108;2023-08-31T08:03:45;17.20;99.90
6792;DHT22;3433;48.730;9.108;2023-08-31T08:06:34;17.30;99.90
6792;DHT22;3433;48.730;9.108;2023-08-31T08:09:21;17.30;99.90
6792;DHT22;3433;48.730;9.108;2023-08-31T08:12:09;17.40;99.90
6792;DHT22;3433;48.730;9.108;2023-08-31T08:14:56;17.40;99.90
6792;DHT22;3433;48.730;9.108;2023-08-31T08:17:44;17.60;99.90
6792;DHT22;3433;48.730;9.108;2023-08-31T08:20:31;17.70;99.90
6792;DHT22;3433;48.730;9.108;2023-08-31T08:23:20;17.80;99.90
6792;DHT22;3433;48.730;9.108;2023-08-31T08:26:07;17.90;99.90
6792;DHT22;3433;48.730;9.108;2023-08-31T08:28:55;18.10;99.90
6792;DHT22;3433;48.730;9.108;2023-08-31T08:31:42;18.20;99.90
6792;DHT22;3433;48.730;9.108;2023-08-31T08:34:29;18.30;99.90
6792;DHT22;3433;48.730;9.108;2023-08-31T08:37:18;18.40;99.90
6792;DHT22;3433;48.730;9.108;2023-08-31T08:40:10;18.60;99.90
6792;DHT22;3433;48.730;9.108;2023-08-31T08:43:00;18.70;99.90
6792;DHT22;3433;48.730;9.108;2023-08-31T08:45:52;18.60;99.90
6792;DHT22;3433;48.730;9.108;2023-08-31T08:48:39;18.50;99.90
6792;DHT22;3433;48.730;9.108;2023-08-31T08:51:29;18.50;99.90
6792;DHT22;3433;48.730;9.108;2023-08-31T08:54:16;18.50;99.90
6792;DHT22;3433;48.730;9.108;2023-08-31T08:57:05;18.30;99.90
6792;DHT22;3433;48.730;9.108;2023-08-31T08:59:52;18.20;99.90
6792;DHT22;3433;48.730;9.108;2023-08-31T09:02:40;18.10;99.90
6792;DHT22;3433;48.730;9.108;2023-08-31T09:05:31;18.10;99.90
6792;DHT22;3433;48.730;9.108;2023-08-31T09:08:25;18.00;99.90
6792;DHT22;3433;48.730;9.108;2023-08-31T09:11:20;18.10;99.90
6792;DHT22;3433;48.730;9.108;2023-08-31T09:14:16;18.10;99.90
6792;DHT22;3433;48.730;9.108;2023-08-31T09:17:03;18.00;99.90
6792;DHT22;3433;48.730;9.108;2023-08-31T09:19:59;18.30;99.90
6792;DHT22;3433;48.730;9.108;2023-08-31T09:22:46;18.00;99.90
6792;DHT22;3433;48.730;9.108;2023-08-31T09:25:42;18.20;99.90
6792;DHT22;3433;48.730;9.108;2023-08-31T09:28:30;18.40;99.90
6792;DHT22;3433;48.730;9.108;2023-08-31T09:31:19;18.70;99.90
6792;DHT22;3433;48.730;9.108;2023-08-31T09:34:06;19.00;99.90
6792;DHT22;3433;48.730;9.108;2023-08-31T09:36:54;18.90;99.90
6792;DHT22;3433;48.730;9.108;2023-08-31T09:39:41;18.80;99.90
6792;DHT22;3433;48.730;9.108;2023-08-31T09:42:36;18.90;99.90
6792;DHT22;3433;48.730;9.108;2023-08-31T09:45:29;19.10;99.40
6792;DHT22;3433;48.730;9.108;2023-08-31T09:48:19;19.20;99.90
6792;DHT22;3433;48.730;9.108;2023-08-31T09:51:07;19.40;99.90
6792;DHT22;3433;48.730;9.108;2023-08-31T09:53:58;19.50;99.90
6792;DHT22;3433;48.730;9.108;2023-08-31T09:56:47;19.40;99.60
6792;DHT22;3433;48.730;9.108;2023-08-31T09:59:34;19.50;99.90
6792;DHT22;3433;48.730;9.108;2023-08-31T10:02:21;19.70;99.90
6792;DHT22;3433;48.730;9.108;2023-08-31T10:05:10;19.90;99.90
6792;DHT22;3433;48.730;9.108;2023-08-31T10:07:58;19.90;99.90
6792;DHT22;3433;48.730;9.108;2023-08-31T10:10:45;19.80;99.30
6792;DHT22;3433;48.730;9.108;2023-08-31T10:13:33;20.00;98.50
6792;DHT22;3433;48.730;9.108;2023-08-31T10:16:25;20.30;99.10
6792;DHT22;3433;48.730;9.108;2023-08-31T10:19:13;20.40;98.80
6792;DHT22;3433;48.730;9.108;2023-08-31T10:22:02;20.50;99.00
6792;DHT22;3433;48.730;9.108;2023-08-31T10:25:00;20.30;98.80
6792;DHT22;3433;48.730;9.108;2023-08-31T10:27:49;20.20;98.80
6792;DHT22;3433;48.730;9.108;2023-08-31T10:30:37;20.10;98.30
6792;DHT22;3433;48.730;9.108;2023-08-31T10:33:26;20.00;99.70
6792;DHT22;3433;48.730;9.108;2023-08-31T10:36:14;20.20;99.50
6792;DHT22;3433;48.730;9.108;2023-08-31T10:39:06;20.10;99.80
6792;DHT22;3433;48.730;9.108;2023-08-31T10:41:55;20.10;98.70
6792;DHT22;3433;48.730;9.108;2023-08-31T10:44:42;20.00;98.70
6792;DHT22;3433;48.730;9.108;2023-08-31T10:47:37;20.00;99.30
6792;DHT22;3433;48.730;9.108;2023-08-31T10:50:25;19.90;97.80
6792;DHT22;3433;48.730;9.108;2023-08-31T10:53:12;20.00;97.10
6792;DHT22;3433;48.730;9.108;2023-08-31T10:56:00;19.80;98.60
6792;DHT22;3433;48.730;9.108;2023-08-31T10:58:58;19.90;99.40
6792;DHT22;3433;48.730;9.108;2023-08-31T11:01:52;20.10;98.80
6792;DHT22;3433;48.730;9.108;2023-08-31T11:04:53;20.10;98.00
6792;DHT22;3433;48.730;9.108;2023-08-31T11:07:41;20.00;97.50
6792;DHT22;3433;48.730;9.108;2023-08-31T11:10:28;20.30;98.20
6792;DHT22;3433;48.730;9.108;2023-08-31T11:13:19;20.40;96.80
6792;DHT22;3433;48.730;9.108;2023-08-31T11:16:06;20.50;97.80
6792;DHT22;3433;48.730;9.108;2023-08-31T11:18:53;20.80;98.10
6792;DHT22;3433;48.730;9.108;2023-08-31T11:21:41;20.60;97.40
6792;DHT22;3433;48.730;9.108;2023-08-31T11:24:28;20.70;96.80
6792;DHT22;3433;48.730;9.108;2023-08-31T11:27:19;20.80;97.20
6792;DHT22;3433;48.730;9.108;2023-08-31T11:30:14;21.00;98.00
6792;DHT22;3433;48.730;9.108;2023-08-31T11:33:03;20.90;97.00
6792;DHT22;3433;48.730;9.108;2023-08-31T11:35:50;20.60;95.60
6792;DHT22;3433;48.730;9.108;2023-08-31T11:38:37;20.80;95.80
6792;DHT22;3433;48.730;9.108;2023-08-31T11:41:24;20.90;96.80
6792;DHT22;3433;48.730;9.108;2023-08-31T11:44:17;20.80;97.90
6792;DHT22;3433;48.730;9.108;2023-08-31T11:47:06;20.80;97.70
6792;DHT22;3433;48.730;9.108;2023-08-31T11:49:53;20.80;98.00
6792;DHT22;3433;48.730;9.108;2023-08-31T11:52:41;20.70;97.00
6792;DHT22;3433;48.730;9.108;2023-08-31T11:55:29;20.80;98.00
6792;DHT22;3433;48.730;9.108;2023-08-31T11:58:17;20.80;98.40
6792;DHT22;3433;48.730;9.108;2023-08-31T12:01:04;20.70;96.30
6792;DHT22;3433;48.730;9.108;2023-08-31T12:03:54;20.60;94.20
6792;DHT22;3433;48.730;9.108;2023-08-31T12:06:42;20.50;97.50
6792;DHT22;3433;48.730;9.108;2023-08-31T12:09:33;20.50;96.70
6792;DHT22;3433;48.730;9.108;2023-08-31T12:12:21;20.40;97.20
6792;DHT22;3433;48.730;9.108;2023-08-31T12:15:11;20.40;98.10
6792;DHT22;3433;48.730;9.108;2023-08-31T12:17:58;20.30;96.40
6792;DHT22;3433;48.730;9.108;2023-08-31T12:20:50;20.20;97.40
6792;DHT22;3433;48.730;9.108;2023-08-31T12:23:38;20.20;98.30
6792;DHT22;3433;48.730;9.108;2023-08-31T12:26:11;20.20;99.30
6792;DHT22;3433;48.730;9.108;2023-08-31T12:28:58;20.20;99.30
6792;DHT22;3433;48.730;9.108;2023-08-31T12:31:45;20.20;99.40
6792;DHT22;3433;48.730;9.108;2023-08-31T12:34:32;20.20;99.50
6792;DHT22;3433;48.730;9.108;2023-08-31T12:37:21;20.30;98.20
6792;DHT22;3433;48.730;9.108;2023-08-31T12:40:09;20.20;98.00
6792;DHT22;3433;48.730;9.108;2023-08-31T12:42:56;20.20;99.60
6792;DHT22;3433;48.730;9.108;2023-08-31T12:45:44;20.30;99.90
6792;DHT22;3433;48.730;9.108;2023-08-31T12:48:31;20.20;99.40
6792;DHT22;3433;48.730;9.108;2023-08-31T12:51:18;20.00;98.30
6792;DHT22;3433;48.730;9.108;2023-08-31T12:54:07;20.00;99.40
6792;DHT22;3433;48.730;9.108;2023-08-31T12:56:54;20.00;99.40
6792;DHT22;3433;48.730;9.108;2023-08-31T12:59:42;20.00;99.50
6792;DHT22;3433;48.730;9.108;2023-08-31T13:02:29;19.90;99.90
6792;DHT22;3433;48.730;9.108;2023-08-31T13:05:16;19.90;99.50
6792;DHT22;3433;48.730;9.108;2023-08-31T13:08:04;19.90;99.70
6792;DHT22;3433;48.730;9.108;2023-08-31T13:10:53;19.90;99.70
6792;DHT22;3433;48.730;9.108;2023-08-31T13:13:40;20.00;99.90
6792;DHT22;3433;48.730;9.108;2023-08-31T13:16:28;20.00;99.90
6792;DHT22;3433;48.730;9.108;2023-08-31T13:19:15;20.00;99.90
6792;DHT22;3433;48.730;9.108;2023-08-31T13:22:02;20.00;99.90
6792;DHT22;3433;48.730;9.108;2023-08-31T13:24:50;20.20;99.90
6792;DHT22;3433;48.730;9.108;2023-08-31T13:27:38;20.50;99.90
6792;DHT22;3433;48.730;9.108;2023-08-31T13:30:26;20.70;99.90
6792;DHT22;3433;48.730;9.108;2023-08-31T13:33:15;20.70;99.80
6792;DHT22;3433;48.730;9.108;2023-08-31T13:36:02;20.90;99.20
6792;DHT22;3433;48.730;9.108;2023-08-31T13:38:50;20.90;99.90
6792;DHT22;3433;48.730;9.108;2023-08-31T13:41:37;21.00;99.90
6792;DHT22;3433;48.730;9.108;2023-08-31T13:44:25;21.20;99.90
6792;DHT22;3433;48.730;9.108;2023-08-31T13:47:12;21.40;99.90
6792;DHT22;3433;48.730;9.108;2023-08-31T13:50:00;21.60;99.90
6792;DHT22;3433;48.730;9.108;2023-08-31T13:52:48;21.50;98.50
6792;DHT22;3433;48.730;9.108;2023-08-31T13:55:35;21.30;98.20
6792;DHT22;3433;48.730;9.108;2023-08-31T13:58:22;21.10;98.60
6792;DHT22;3433;48.730;9.108;2023-08-31T14:01:11;21.00;97.60
6792;DHT22;3433;48.730;9.108;2023-08-31T14:03:59;20.80;99.00
6792;DHT22;3433;48.730;9.108;2023-08-31T14:06:46;20.70;99.60
6792;DHT22;3433;48.730;9.108;2023-08-31T14:09:34;20.60;98.90
6792;DHT22;3433;48.730;9.108;2023-08-31T14:12:21;20.50;98.10
6792;DHT22;3433;48.730;9.108;2023-08-31T14:15:08;20.40;98.30
6792;DHT22;3433;48.730;9.108;2023-08-31T14:17:57;20.30;99.40
6792;DHT22;3433;48.730;9.108;2023-08-31T14:20:44;20.20;98.60
6792;DHT22;3433;48.730;9.108;2023-08-31T14:23:32;20.10;98.40
6792;DHT22;3433;48.730;9.108;2023-08-31T14:26:19;20.20;99.90
6792;DHT22;3433;48.730;9.108;2023-08-31T14:29:06;20.20;99.40
6792;DHT22;3433;48.730;9.108;2023-08-31T14:31:53;20.10;98.90
6792;DHT22;3433;48.730;9.108;2023-08-31T14:34:42;20.10;99.20
6792;DHT22;3433;48.730;9.108;2023-08-31T14:37:30;20.00;98.90
6792;DHT22;3433;48.730;9.108;2023-08-31T14:40:17;20.00;99.10
6792;DHT22;3433;48.730;9.108;2023-08-31T14:43:04;20.00;99.80
6792;DHT22;3433;48.730;9.108;2023-08-31T14:45:51;20.00;99.40
6792;DHT22;3433;48.730;9.108;2023-08-31T14:48:38;20.00;99.60
6792;DHT22;3433;48.730;9.108;2023-08-31T14:51:27;19.90;98.70
6792;DHT22;3433;48.730;9.108;2023-08-31T14:54:14;20.00;99.40
6792;DHT22;3433;48.730;9.108;2023-08-31T14:57:02;20.00;99.70
6792;DHT22;3433;48.730;9.108;2023-08-31T14:59:50;20.00;99.40
6792;DHT22;3433;48.730;9.108;2023-08-31T15:02:39;19.90;99.90
6792;DHT22;3433;48.730;9.108;2023-08-31T15:05:26;19.80;99.80
6792;DHT22;3433;48.730;9.108;2023-08-31T15:08:17;20.00;99.90
6792;DHT22;3433;48.730;9.108;2023-08-31T15:11:05;19.90;99.90
6792;DHT22;3433;48.730;9.108;2023-08-31T15:13:52;19.90;99.90
6792;DHT22;3433;48.730;9.108;2023-08-31T15:16:39;19.90;99.90
6792;DHT22;3433;48.730;9.108;2023-08-31T15:19:26;19.90;99.90
6792;DHT22;3433;48.730;9.108;2023-08-31T15:22:13;19.90;99.90
6792;DHT22;3433;48.730;9.108;2023-08-31T15:25:02;20.00;99.90
6792;DHT22;3433;48.730;9.108;2023-08-31T15:27:51;20.00;99.90
6792;DHT22;3433;48.730;9.108;2023-08-31T15:30:38;20.00;99.90
6792;DHT22;3433;48.730;9.108;2023-08-31T15:33:26;20.00;99.90
6792;DHT22;3433;48.730;9.108;2023-08-31T15:36:13;20.00;99.90
6792;DHT22;3433;48.730;9.108;2023-08-31T15:39:01;20.00;99.90
6792;DHT22;3433;48.730;9.108;2023-08-31T15:41:50;19.90;99.90
6792;DHT22;3433;48.730;9.108;2023-08-31T15:58:59;18.60;99.90
6792;DHT22;3433;48.730;9.108;2023-08-31T16:01:46;18.70;99.90
6792;DHT22;3433;48.730;9.108;2023-08-31T16:04:33;19.00;99.90
6792;DHT22;3433;48.730;9.108;2023-08-31T16:07:21;19.20;99.90
6792;DHT22;3433;48.730;9.108;2023-08-31T16:10:08;19.40;99.90
6792;DHT22;3433;48.730;9.108;2023-08-31T16:12:56;19.50;99.90
6792;DHT22;3433;48.730;9.108;2023-08-31T16:15:47;19.70;99.90
6792;DHT22;3433;48.730;9.108;2023-08-31T16:18:35;19.80;99.90
6792;DHT22;3433;48.730;9.108;2023-08-31T16:21:22;19.90;99.90
6792;DHT22;3433;48.730;9.108;2023-08-31T16:24:10;19.90;99.90
6792;DHT22;3433;48.730;9.108;2023-08-31T16:26:57;20.00;99.90
6792;DHT22;3433;48.730;9.108;2023-08-31T16:29:44;20.00;99.90
6792;DHT22;3433;48.730;9.108;2023-08-31T16:32:35;20.10;99.90
6792;DHT22;3433;48.730;9.108;2023-08-31T16:35:22;20.10;99.90
6792;DHT22;3433;48.730;9.108;2023-08-31T16:38:09;20.10;99.90
6792;DHT22;3433;48.730;9.108;2023-08-31T16:40:57;20.10;99.90
6792;DHT22;3433;48.730;9.108;2023-08-31T16:43:44;20.00;99.90
6792;DHT22;3433;48.730;9.108;2023-08-31T16:46:31;20.00;99.90
6792;DHT22;3433;48.730;9.108;2023-08-31T16:49:20;20.00;99.90
6792;DHT22;3433;48.730;9.108;2023-08-31T16:52:07;19.90;99.90
6792;DHT22;3433;48.730;9.108;2023-08-31T16:54:54;19.90;99.90
6792;DHT22;3433;48.730;9.108;2023-08-31T16:57:42;19.90;99.90
6792;DHT22;3433;48.730;9.108;2023-08-31T17:00:29;19.90;99.90
6792;DHT22;3433;48.730;9.108;2023-08-31T17:03:16;19.90;99.90
6792;DHT22;3433;48.730;9.108;2023-08-31T17:06:05;19.90;99.90
6792;DHT22;3433;48.730;9.108;2023-08-31T17:08:52;19.90;99.90
6792;DHT22;3433;48.730;9.108;2023-08-31T17:11:40;19.80;99.90
6792;DHT22;3433;48.730;9.108;2023-08-31T17:14:29;19.80;99.90
6792;DHT22;3433;48.730;9.108;2023-08-31T17:17:16;19.70;99.90
6792;DHT22;3433;48.730;9.108;2023-08-31T17:20:04;19.60;99.90
6792;DHT22;3433;48.730;9.108;2023-08-31T17:22:55;19.60;99.90
6792;DHT22;3433;48.730;9.108;2023-08-31T17:25:43;19.50;99.90
6792;DHT22;3433;48.730;9.108;2023-08-31T17:28:30;19.40;99.90
6792;DHT22;3433;48.730;9.108;2023-08-31T17:31:17;19.40;99.90
6792;DHT22;3433;48.730;9.108;2023-08-31T17:34:04;19.40;99.90
6792;DHT22;3433;48.730;9.108;2023-08-31T17:36:51;19.30;99.90
6792;DHT22;3433;48.730;9.108;2023-08-31T17:39:40;19.30;99.90
6792;DHT22;3433;48.730;9.108;2023-08-31T17:42:27;19.20;99.90
6792;DHT22;3433;48.730;9.108;2023-08-31T17:45:15;19.20;99.90
6792;DHT22;3433;48.730;9.108;2023-08-31T17:48:02;19.20;99.90
6792;DHT22;3433;48.730;9.108;2023-08-31T17:50:50;19.20;99.90
6792;DHT22;3433;48.730;9.108;2023-08-31T17:53:37;19.10;99.90
6792;DHT22;3433;48.730;9.108;2023-08-31T17:56:26;19.10;99.90
6792;DHT22;3433;48.730;9.108;2023-08-31T17:59:14;19.00;99.90
6792;DHT22;3433;48.730;9.108;2023-08-31T18:02:02;19.00;99.90
6792;DHT22;3433;48.730;9.108;2023-08-31T18:04:50;19.00;99.90
6792;DHT22;3433;48.730;9.108;2023-08-31T18:07:37;19.00;99.90
6792;DHT22;3433;48.730;9.108;2023-08-31T18:10:25;18.90;99.90
6792;DHT22;3433;48.730;9.108;2023-08-31T18:13:16;18.90;99.90
6792;DHT22;3433;48.730;9.108;2023-08-31T18:16:03;18.90;99.90
6792;DHT22;3433;48.730;9.108;2023-08-31T18:18:51;18.90;99.90
6792;DHT22;3433;48.730;9.108;2023-08-31T18:21:38;18.90;99.90
6792;DHT22;3433;48.730;9.108;2023-08-31T18:24:26;18.90;99.90
6792;DHT22;3433;48.730;9.108;2023-08-31T18:27:13;18.90;99.90
6792;DHT22;3433;48.730;9.108;2023-08-31T18:30:02;18.80;99.90
6792;DHT22;3433;48.730;9.108;2023-08-31T18:32:49;18.80;99.90